Time,TemperatureF,DewpointF,PressureIn,WindDirection,WindDirectionDegrees,WindSpeedMPH,WindSpeedGustMPH,Humidity,HourlyPrecipIn,Conditions,Clouds,dailyrainin,SoftwareType,DateUTC
2013-08-06 00:01:00,60.9,60.6,29.76,SW,233,0.0,0.0,99,0.00,,---,0.00,VWS V14.01,2013-08-06 05:01:00,
2013-08-06 00:06:00,60.9,60.6,29.76,SW,233,0.0,0.0,99,0.00,,---,0.00,VWS V14.01,2013-08-06 05:06:00,
2013-08-06 00:11:00,60.8,60.5,29.76,SW,233,0.0,0.0,99,0.00,,---,0.00,VWS V14.01,2013-08-06 05:11:00,
2013-08-06 00:16:00,60.7,60.4,29.76,SW,233,0.0,0.0,99,0.00,,---,0.00,VWS V14.01,2013-08-06 05:16:00,
2013-08-06 00:21:00,60.6,60.3,29.76,SW,233,0.0,0.0,99,0.00,,---,0.00,VWS V14.01,2013-08-06 05:21:00,
2013-08-06 00:26:00,60.6,60.3,29.76,SW,218,0.0,0.0,99,0.00,,---,0.00,VWS V14.01,2013-08-06 05:26:00,
2013-08-06 00:31:00,60.7,60.4,29.75,SW,221,0.0,0.0,99,0.00,,---,0.00,VWS V14.01,2013-08-06 05:31:00,
2013-08-06 00:36:00,60.8,60.5,29.75,South,188,0.0,0.0,99,0.00,,---,0.00,VWS V14.01,2013-08-06 05:36:00,
2013-08-06 00:41:00,61.0,60.7,29.75,SE,144,0.0,0.0,99,0.00,,---,0.00,VWS V14.01,2013-08-06 05:41:00,
2013-08-06 00:46:00,61.0,60.7,29.75,South,188,0.0,0.0,99,0.00,,---,0.00,VWS V14.01,2013-08-06 05:46:00,
2013-08-06 00:51:00,61.1,60.8,29.75,South,188,0.0,0.0,99,0.00,,---,0.00,VWS V14.01,2013-08-06 05:51:00,
2013-08-06 00:56:00,61.2,60.9,29.75,South,188,0.0,0.0,99,0.00,,---,0.00,VWS V14.01,2013-08-06 05:56:00,
2013-08-06 01:01:00,61.2,60.9,29.75,South,187,0.0,0.0,99,0.00,,---,0.00,VWS V14.01,2013-08-06 06:01:00,
2013-08-06 01:06:00,61.1,60.8,29.75,South,188,0.0,0.0,99,0.00,,---,0.00,VWS V14.01,2013-08-06 06:06:00,
2013-08-06 01:11:00,61.0,60.7,29.75,South,187,0.0,0.0,99,0.00,,---,0.00,VWS V14.01,2013-08-06 06:11:00,
2013-08-06 01:16:00,60.8,60.5,29.74,South,187,0.0,0.0,99,0.00,,---,0.00,VWS V14.01,2013-08-06 06:16:00,
2013-08-06 01:21:00,60.3,60.0,29.74,South,187,0.0,0.0,99,0.01,,---,0.01,VWS V14.01,2013-08-06 06:21:00,
2013-08-06 01:27:00,60.1,59.8,29.74,South,188,0.0,0.0,99,0.01,,---,0.01,VWS V14.01,2013-08-06 06:27:00,
2013-08-06 01:32:00,60.0,59.7,29.74,South,187,0.0,0.0,99,0.01,,---,0.01,VWS V14.01,2013-08-06 06:32:00,
2013-08-06 01:37:00,60.2,59.9,29.74,South,187,0.0,0.0,99,0.01,,---,0.01,VWS V14.01,2013-08-06 06:37:00,
2013-08-06 01:42:00,60.1,59.8,29.74,South,188,0.0,0.0,99,0.01,,---,0.01,VWS V14.01,2013-08-06 06:42:00,
2013-08-06 01:47:00,60.2,59.9,29.73,South,188,0.0,0.0,99,0.01,,---,0.01,VWS V14.01,2013-08-06 06:47:00,
2013-08-06 01:52:00,60.4,60.1,29.73,South,187,0.0,0.0,99,0.01,,---,0.01,VWS V14.01,2013-08-06 06:52:00,
2013-08-06 01:57:00,60.5,60.2,29.73,SW,217,0.0,0.0,99,0.01,,---,0.01,VWS V14.01,2013-08-06 06:57:00,
2013-08-06 02:02:00,60.7,60.4,29.72,SW,217,0.0,0.0,99,0.01,,---,0.01,VWS V14.01,2013-08-06 07:02:00,
2013-08-06 02:07:00,60.7,60.4,29.72,SW,228,0.0,0.0,99,0.01,,---,0.01,VWS V14.01,2013-08-06 07:07:00,
2013-08-06 02:12:00,60.9,60.6,29.72,SSW,194,0.0,0.0,99,0.01,,---,0.01,VWS V14.01,2013-08-06 07:12:00,
2013-08-06 02:17:00,61.0,60.7,29.73,West,261,0.0,0.0,99,0.01,,---,0.01,VWS V14.01,2013-08-06 07:17:00,
2013-08-06 02:22:00,61.2,60.9,29.73,West,277,0.0,0.0,99,0.01,,---,0.01,VWS V14.01,2013-08-06 07:22:00,
2013-08-06 02:27:00,61.3,61.0,29.73,WNW,302,0.0,0.0,99,0.01,,---,0.01,VWS V14.01,2013-08-06 07:27:00,
2013-08-06 02:32:00,61.4,61.1,29.72,SSW,209,0.0,0.0,99,0.00,,---,0.01,VWS V14.01,2013-08-06 07:32:00,
2013-08-06 02:37:00,61.5,61.2,29.72,West,277,0.0,0.0,99,0.00,,---,0.01,VWS V14.01,2013-08-06 07:37:00,
2013-08-06 02:42:00,61.5,61.2,29.72,SE,132,0.0,0.0,99,0.00,,---,0.01,VWS V14.01,2013-08-06 07:42:00,
2013-08-06 02:47:00,61.5,61.2,29.72,SW,222,0.0,0.0,99,0.00,,---,0.01,VWS V14.01,2013-08-06 07:47:00,
2013-08-06 02:52:00,61.4,61.1,29.72,WSW,257,0.0,0.0,99,0.00,,---,0.01,VWS V14.01,2013-08-06 07:52:00,
2013-08-06 02:57:00,61.4,61.1,29.72,West,267,0.0,0.0,99,0.00,,---,0.01,VWS V14.01,2013-08-06 07:57:00,
2013-08-06 03:02:00,61.3,61.0,29.72,SE,136,0.0,0.0,99,0.00,,---,0.01,VWS V14.01,2013-08-06 08:02:00,
2013-08-06 03:08:00,61.3,61.0,29.72,South,187,0.0,0.0,99,0.00,,---,0.01,VWS V14.01,2013-08-06 08:08:00,
2013-08-06 03:13:00,61.3,61.0,29.72,SW,217,0.0,0.0,99,0.00,,---,0.01,VWS V14.01,2013-08-06 08:13:00,
2013-08-06 03:18:00,61.3,61.0,29.71,SW,217,0.0,0.0,99,0.00,,---,0.01,VWS V14.01,2013-08-06 08:18:00,
2013-08-06 03:23:00,61.3,61.0,29.71,SW,217,0.0,0.0,99,0.00,,---,0.01,VWS V14.01,2013-08-06 08:23:00,
2013-08-06 03:28:00,61.3,61.0,29.71,SW,217,0.0,0.0,99,0.00,,---,0.01,VWS V14.01,2013-08-06 08:28:00,
2013-08-06 03:33:00,61.3,61.0,29.72,SW,217,0.0,0.0,99,0.00,,---,0.01,VWS V14.01,2013-08-06 08:33:00,
2013-08-06 03:38:00,61.3,61.0,29.72,West,269,0.0,0.0,99,0.00,,---,0.01,VWS V14.01,2013-08-06 08:38:00,
2013-08-06 03:43:00,61.3,61.0,29.72,West,269,0.0,0.0,99,0.00,,---,0.01,VWS V14.01,2013-08-06 08:43:00,
2013-08-06 03:48:00,61.3,61.0,29.72,West,269,0.0,0.0,99,0.00,,---,0.01,VWS V14.01,2013-08-06 08:48:00,
2013-08-06 03:53:00,61.3,61.0,29.72,West,269,0.0,0.0,99,0.00,,---,0.01,VWS V14.01,2013-08-06 08:53:00,
2013-08-06 03:58:00,61.3,61.0,29.72,West,277,0.0,0.0,99,0.00,,---,0.01,VWS V14.01,2013-08-06 08:58:00,
2013-08-06 04:03:00,61.3,61.0,29.72,West,271,0.0,0.0,99,0.00,,---,0.01,VWS V14.01,2013-08-06 09:03:00,
2013-08-06 04:08:00,61.3,61.0,29.72,WNW,283,0.0,3.0,99,0.00,,---,0.01,VWS V14.01,2013-08-06 09:08:00,
2013-08-06 04:13:00,61.3,61.0,29.72,SW,217,0.0,3.0,99,0.00,,---,0.01,VWS V14.01,2013-08-06 09:13:00,
2013-08-06 04:18:00,61.2,60.9,29.71,ESE,123,2.0,3.0,99,0.00,,---,0.01,VWS V14.01,2013-08-06 09:18:00,
2013-08-06 04:23:00,61.2,60.9,29.71,SW,229,0.0,3.0,99,0.00,,---,0.01,VWS V14.01,2013-08-06 09:23:00,
2013-08-06 04:28:00,61.2,60.9,29.71,South,175,1.0,3.0,99,0.00,,---,0.01,VWS V14.01,2013-08-06 09:28:00,
2013-08-06 04:33:00,61.1,60.8,29.70,South,182,0.0,3.0,99,0.00,,---,0.01,VWS V14.01,2013-08-06 09:33:00,
2013-08-06 04:38:00,61.1,60.8,29.70,SSE,156,0.0,3.0,99,0.00,,---,0.01,VWS V14.01,2013-08-06 09:38:00,
2013-08-06 04:44:00,61.1,60.8,29.70,South,188,1.0,3.0,99,0.00,,---,0.01,VWS V14.01,2013-08-06 09:44:00,
2013-08-06 04:49:00,61.0,60.7,29.70,West,277,0.0,3.0,99,0.00,,---,0.01,VWS V14.01,2013-08-06 09:49:00,
2013-08-06 04:54:00,61.0,60.7,29.70,WSW,245,0.0,3.0,99,0.00,,---,0.01,VWS V14.01,2013-08-06 09:54:00,
2013-08-06 04:59:00,60.9,60.6,29.70,SSE,156,0.0,3.0,99,0.00,,---,0.01,VWS V14.01,2013-08-06 09:59:00,
2013-08-06 05:04:00,60.9,60.6,29.70,SSW,202,0.0,0.0,99,0.00,,---,0.01,VWS V14.01,2013-08-06 10:04:00,
2013-08-06 05:09:00,61.0,60.7,29.70,SSW,202,0.0,0.0,99,0.00,,---,0.01,VWS V14.01,2013-08-06 10:09:00,
2013-08-06 05:14:00,61.0,60.7,29.70,SSW,200,0.0,0.0,99,0.00,,---,0.01,VWS V14.01,2013-08-06 10:14:00,
2013-08-06 05:19:00,61.0,60.7,29.70,South,181,0.0,0.0,99,0.00,,---,0.01,VWS V14.01,2013-08-06 10:19:00,
2013-08-06 05:24:00,61.0,60.7,29.70,WSW,248,0.0,2.0,99,0.00,,---,0.01,VWS V14.01,2013-08-06 10:24:00,
2013-08-06 05:29:00,61.0,60.7,29.70,SSW,210,0.0,2.0,99,0.00,,---,0.01,VWS V14.01,2013-08-06 10:29:00,
2013-08-06 05:34:00,61.0,60.7,29.70,SSE,167,0.0,2.0,99,0.00,,---,0.01,VWS V14.01,2013-08-06 10:34:00,
2013-08-06 05:39:00,61.0,60.7,29.70,SE,129,0.0,2.0,99,0.00,,---,0.01,VWS V14.01,2013-08-06 10:39:00,
2013-08-06 05:44:00,61.0,60.7,29.71,SSW,211,0.0,2.0,99,0.00,,---,0.01,VWS V14.01,2013-08-06 10:44:00,
2013-08-06 05:49:00,61.0,60.7,29.71,SSW,211,0.0,2.0,99,0.00,,---,0.01,VWS V14.01,2013-08-06 10:49:00,
2013-08-06 05:54:00,61.0,60.7,29.71,WSW,250,0.0,2.0,99,0.00,,---,0.01,VWS V14.01,2013-08-06 10:54:00,
2013-08-06 05:59:00,61.1,60.8,29.70,WSW,252,0.0,2.0,99,0.00,,---,0.01,VWS V14.01,2013-08-06 10:59:00,
2013-08-06 06:04:00,61.1,60.8,29.70,SSE,162,0.0,0.0,99,0.00,,---,0.01,VWS V14.01,2013-08-06 11:04:00,
2013-08-06 06:09:00,61.1,60.8,29.70,SSE,162,0.0,0.0,99,0.00,,---,0.01,VWS V14.01,2013-08-06 11:09:00,
2013-08-06 06:15:00,61.1,60.8,29.70,South,191,0.0,1.0,99,0.00,,---,0.01,VWS V14.01,2013-08-06 11:15:00,
2013-08-06 06:20:00,61.1,60.8,29.70,SW,215,1.0,3.0,99,0.00,,---,0.01,VWS V14.01,2013-08-06 11:20:00,
2013-08-06 06:25:00,61.1,60.8,29.70,SW,225,0.0,3.0,99,0.00,,---,0.01,VWS V14.01,2013-08-06 11:25:00,
2013-08-06 06:30:00,61.1,60.8,29.70,SE,136,0.0,3.0,99,0.00,,---,0.01,VWS V14.01,2013-08-06 11:30:00,
2013-08-06 06:35:00,61.1,60.8,29.70,SW,226,0.0,0.0,99,0.00,,---,0.01,VWS V14.01,2013-08-06 11:35:00,
2013-08-06 06:40:00,61.2,60.9,29.70,WSW,248,0.0,0.0,99,0.00,,---,0.01,VWS V14.01,2013-08-06 11:40:00,
2013-08-06 06:45:00,61.2,60.9,29.71,SE,137,1.0,2.0,99,0.00,,---,0.01,VWS V14.01,2013-08-06 11:45:00,
2013-08-06 06:50:00,61.2,60.9,29.71,SSE,155,0.0,2.0,99,0.00,,---,0.01,VWS V14.01,2013-08-06 11:50:00,
2013-08-06 06:55:00,61.2,60.9,29.71,West,261,1.0,2.0,99,0.00,,---,0.01,VWS V14.01,2013-08-06 11:55:00,
2013-08-06 07:00:00,61.3,61.0,29.71,SSW,194,0.0,0.0,99,0.00,,---,0.01,VWS V14.01,2013-08-06 12:00:00,
2013-08-06 07:05:00,61.2,60.9,29.71,ESE,104,0.0,1.0,99,0.00,,---,0.01,VWS V14.01,2013-08-06 12:05:00,
2013-08-06 07:10:00,61.3,61.0,29.71,SSW,213,0.0,1.0,99,0.00,,---,0.01,VWS V14.01,2013-08-06 12:10:00,
2013-08-06 07:15:00,61.4,61.1,29.71,SW,214,0.0,1.0,99,0.00,,---,0.01,VWS V14.01,2013-08-06 12:15:00,
2013-08-06 07:20:00,61.4,61.1,29.71,SSE,153,0.0,1.0,99,0.00,,---,0.01,VWS V14.01,2013-08-06 12:20:00,
2013-08-06 07:25:00,61.4,61.1,29.71,SSE,167,0.0,1.0,99,0.00,,---,0.01,VWS V14.01,2013-08-06 12:25:00,
2013-08-06 07:31:00,61.5,61.2,29.69,South,171,0.0,0.0,99,0.00,,---,0.01,VWS V14.01,2013-08-06 12:31:00,
2013-08-06 07:36:00,61.6,61.3,29.69,South,171,0.0,0.0,99,0.00,,---,0.01,VWS V14.01,2013-08-06 12:36:00,
2013-08-06 07:41:00,61.8,61.5,29.69,SSE,155,0.0,3.0,99,0.00,,---,0.01,VWS V14.01,2013-08-06 12:41:00,
2013-08-06 07:46:00,61.8,61.5,29.70,ESE,123,0.0,3.0,99,0.00,,---,0.01,VWS V14.01,2013-08-06 12:46:00,
2013-08-06 07:51:00,61.8,61.5,29.70,SSE,152,0.0,3.0,99,0.00,,---,0.01,VWS V14.01,2013-08-06 12:51:00,
2013-08-06 07:56:00,61.8,61.5,29.70,WSW,241,1.0,3.0,99,0.00,,---,0.01,VWS V14.01,2013-08-06 12:56:00,
2013-08-06 08:01:00,61.9,61.6,29.70,SSW,207,1.0,1.0,99,0.00,,---,0.01,VWS V14.01,2013-08-06 13:01:00,
2013-08-06 08:06:00,62.1,61.8,29.70,SSW,206,0.0,1.0,99,0.00,,---,0.01,VWS V14.01,2013-08-06 13:06:00,
2013-08-06 08:11:00,62.4,62.1,29.70,SSW,207,0.0,1.0,99,0.00,,---,0.01,VWS V14.01,2013-08-06 13:11:00,
2013-08-06 08:16:00,62.4,62.1,29.70,SSW,205,0.0,1.0,99,0.00,,---,0.01,VWS V14.01,2013-08-06 13:16:00,
2013-08-06 08:22:00,62.6,62.3,29.70,SSW,206,0.0,1.0,99,0.00,,---,0.01,VWS V14.01,2013-08-06 13:22:00,
2013-08-06 08:27:00,62.6,62.3,29.70,SSW,207,0.0,1.0,99,0.00,,---,0.01,VWS V14.01,2013-08-06 13:27:00,
2013-08-06 08:32:00,62.9,62.6,29.71,SSW,206,0.0,0.0,99,0.00,,---,0.01,VWS V14.01,2013-08-06 13:32:00,
2013-08-06 08:37:00,62.9,62.6,29.71,SSW,206,0.0,0.0,99,0.00,,---,0.01,VWS V14.01,2013-08-06 13:37:00,
2013-08-06 08:42:00,63.0,62.7,29.71,SSW,196,0.0,2.0,99,0.00,,---,0.01,VWS V14.01,2013-08-06 13:42:00,
2013-08-06 08:47:00,63.0,62.7,29.71,SE,140,0.0,2.0,99,0.00,,---,0.01,VWS V14.01,2013-08-06 13:47:00,
2013-08-06 08:50:00,63.1,62.8,29.71,South,178,0.0,2.0,99,0.00,,---,0.01,VWS V14.01,2013-08-06 13:50:00,
2013-08-06 08:55:00,63.2,62.9,29.71,SSW,210,0.0,2.0,99,0.00,,---,0.01,VWS V14.01,2013-08-06 13:55:00,
2013-08-06 09:00:00,63.2,62.9,29.71,SW,223,0.0,2.0,99,0.00,,---,0.01,VWS V14.01,2013-08-06 14:00:00,
2013-08-06 09:05:00,63.2,62.9,29.71,WSW,250,0.0,1.0,99,0.00,,---,0.01,VWS V14.01,2013-08-06 14:05:00,
2013-08-06 09:10:00,63.4,63.1,29.71,WSW,246,0.0,1.0,99,0.00,,---,0.01,VWS V14.01,2013-08-06 14:10:00,
2013-08-06 09:15:00,63.4,63.1,29.71,SSE,160,0.0,1.0,99,0.00,,---,0.01,VWS V14.01,2013-08-06 14:15:00,
2013-08-06 09:20:00,63.6,63.3,29.71,West,273,0.0,1.0,99,0.00,,---,0.01,VWS V14.01,2013-08-06 14:20:00,
2013-08-06 09:25:00,63.9,63.6,29.71,SE,138,3.0,3.0,99,0.00,,---,0.01,VWS V14.01,2013-08-06 14:25:00,
2013-08-06 09:30:00,64.2,63.9,29.70,West,269,0.0,1.0,99,0.00,,---,0.01,VWS V14.01,2013-08-06 14:30:00,
2013-08-06 09:35:00,64.3,63.7,29.70,SE,134,0.0,2.0,98,0.00,,---,0.01,VWS V14.01,2013-08-06 14:35:00,
2013-08-06 09:41:00,64.6,63.7,29.70,West,276,0.0,3.0,97,0.00,,---,0.01,VWS V14.01,2013-08-06 14:41:00,
2013-08-06 09:46:00,64.6,63.4,29.71,West,269,0.0,3.0,96,0.00,,---,0.01,VWS V14.01,2013-08-06 14:46:00,
2013-08-06 09:51:00,64.8,63.6,29.71,SSE,164,3.0,4.0,96,0.00,,---,0.01,VWS V14.01,2013-08-06 14:51:00,
2013-08-06 09:56:00,65.0,63.5,29.71,SSE,164,0.0,6.0,95,0.00,,---,0.01,VWS V14.01,2013-08-06 14:56:00,
2013-08-06 10:01:00,65.4,63.9,29.71,WSW,253,1.0,2.0,95,0.00,,---,0.01,VWS V14.01,2013-08-06 15:01:00,
2013-08-06 10:06:00,65.6,64.1,29.71,WNW,290,2.0,4.0,95,0.00,,---,0.01,VWS V14.01,2013-08-06 15:06:00,
2013-08-06 10:11:00,66.0,64.2,29.71,West,259,0.0,6.0,94,0.00,,---,0.01,VWS V14.01,2013-08-06 15:11:00,
2013-08-06 10:16:00,66.0,63.9,29.71,West,265,0.0,6.0,93,0.00,,---,0.01,VWS V14.01,2013-08-06 15:16:00,
2013-08-06 10:21:00,66.4,64.3,29.71,WNW,286,2.0,6.0,93,0.00,,---,0.01,VWS V14.01,2013-08-06 15:21:00,
2013-08-06 10:26:00,66.5,63.8,29.71,West,264,1.0,6.0,91,0.00,,---,0.01,VWS V14.01,2013-08-06 15:26:00,
2013-08-06 10:31:00,66.8,64.4,29.71,West,280,2.0,3.0,92,0.00,,---,0.01,VWS V14.01,2013-08-06 15:31:00,
2013-08-06 10:36:00,67.0,64.3,29.71,West,265,1.0,5.0,91,0.00,,---,0.01,VWS V14.01,2013-08-06 15:36:00,
2013-08-06 10:41:00,67.4,64.1,29.71,SE,133,2.0,5.0,89,0.00,,---,0.01,VWS V14.01,2013-08-06 15:41:00,
2013-08-06 10:47:00,68.1,65.1,29.71,NW,317,2.0,5.0,90,0.00,,---,0.01,VWS V14.01,2013-08-06 15:47:00,
2013-08-06 10:52:00,68.4,63.7,29.71,South,190,1.0,5.0,85,0.00,,---,0.01,VWS V14.01,2013-08-06 15:52:00,
2013-08-06 10:57:00,68.7,63.7,29.71,South,191,1.0,5.0,84,0.00,,---,0.01,VWS V14.01,2013-08-06 15:57:00,
2013-08-06 11:02:00,68.6,63.6,29.71,SW,235,2.0,2.0,84,0.00,,---,0.01,VWS V14.01,2013-08-06 16:02:00,
2013-08-06 11:07:00,68.7,64.0,29.71,West,267,0.0,4.0,85,0.00,,---,0.01,VWS V14.01,2013-08-06 16:07:00,
2013-08-06 11:12:00,68.6,63.6,29.71,WSW,256,1.0,4.0,84,0.00,,---,0.01,VWS V14.01,2013-08-06 16:12:00,
2013-08-06 11:17:00,68.8,63.4,29.71,West,275,0.0,4.0,83,0.00,,---,0.01,VWS V14.01,2013-08-06 16:17:00,
2013-08-06 11:22:00,69.0,63.3,29.71,SE,129,0.0,4.0,82,0.00,,---,0.01,VWS V14.01,2013-08-06 16:22:00,
2013-08-06 11:27:00,69.2,63.5,29.71,SSW,206,0.0,4.0,82,0.00,,---,0.01,VWS V14.01,2013-08-06 16:27:00,
2013-08-06 11:32:00,69.3,62.5,29.70,SE,142,2.0,3.0,79,0.00,,---,0.01,VWS V14.01,2013-08-06 16:32:00,
2013-08-06 11:37:00,69.5,62.3,29.70,SW,233,0.0,4.0,78,0.00,,---,0.01,VWS V14.01,2013-08-06 16:37:00,
2013-08-06 11:42:00,69.5,62.0,29.70,WSW,244,0.0,4.0,77,0.00,,---,0.01,VWS V14.01,2013-08-06 16:42:00,
2013-08-06 11:47:00,69.4,62.2,29.71,West,267,2.0,4.0,78,0.00,,---,0.01,VWS V14.01,2013-08-06 16:47:00,
2013-08-06 11:52:00,69.2,62.4,29.71,WSW,250,0.0,4.0,79,0.00,,---,0.01,VWS V14.01,2013-08-06 16:52:00,
2013-08-06 11:57:00,69.3,62.2,29.71,West,277,2.0,4.0,78,0.00,,---,0.01,VWS V14.01,2013-08-06 16:57:00,
2013-08-06 12:02:00,69.5,61.6,29.70,SSE,155,2.0,4.0,76,0.00,,---,0.01,VWS V14.01,2013-08-06 17:02:00,
2013-08-06 12:07:00,69.6,61.7,29.70,SE,146,1.0,4.0,76,0.00,,---,0.01,VWS V14.01,2013-08-06 17:07:00,
2013-08-06 12:12:00,70.1,62.6,29.70,WSW,241,2.0,4.0,77,0.00,,---,0.01,VWS V14.01,2013-08-06 17:12:00,
2013-08-06 12:17:00,70.4,61.7,29.70,SW,226,0.0,4.0,74,0.00,,---,0.01,VWS V14.01,2013-08-06 17:17:00,
2013-08-06 12:22:00,71.1,63.2,29.70,West,272,1.0,4.0,76,0.00,,---,0.01,VWS V14.01,2013-08-06 17:22:00,
2013-08-06 12:28:00,70.8,61.3,29.70,SSE,151,0.0,7.0,72,0.00,,---,0.01,VWS V14.01,2013-08-06 17:28:00,
2013-08-06 12:29:00,70.8,62.1,29.70,West,275,3.0,7.0,74,0.00,,---,0.01,VWS V14.01,2013-08-06 17:29:00,
2013-08-06 12:34:00,71.1,62.0,29.70,SW,227,0.0,2.0,73,0.00,,---,0.01,VWS V14.01,2013-08-06 17:34:00,
2013-08-06 12:39:00,71.6,61.3,29.70,West,271,1.0,5.0,70,0.00,,---,0.01,VWS V14.01,2013-08-06 17:39:00,
2013-08-06 12:44:00,71.0,61.1,29.70,WSW,250,2.0,7.0,71,0.00,,---,0.01,VWS V14.01,2013-08-06 17:44:00,
2013-08-06 12:49:00,71.1,61.6,29.70,SW,230,1.0,7.0,72,0.00,,---,0.01,VWS V14.01,2013-08-06 17:49:00,
2013-08-06 12:55:00,71.3,61.4,29.70,West,271,2.0,7.0,71,0.00,,---,0.01,VWS V14.01,2013-08-06 17:55:00,
2013-08-06 13:00:00,71.4,61.1,29.70,WSW,254,2.0,7.0,70,0.00,,---,0.01,VWS V14.01,2013-08-06 18:00:00,
2013-08-06 13:05:00,71.6,61.3,29.70,West,272,1.0,3.0,70,0.00,,---,0.01,VWS V14.01,2013-08-06 18:05:00,
2013-08-06 13:10:00,72.4,62.1,29.70,WSW,241,2.0,4.0,70,0.00,,---,0.01,VWS V14.01,2013-08-06 18:10:00,
2013-08-06 13:15:00,73.2,62.0,29.69,West,259,4.0,5.0,68,0.00,,---,0.01,VWS V14.01,2013-08-06 18:15:00,
2013-08-06 13:20:00,73.5,62.3,29.69,West,279,2.0,5.0,68,0.00,,---,0.01,VWS V14.01,2013-08-06 18:20:00,
2013-08-06 13:25:00,73.5,62.3,29.69,SW,226,2.0,5.0,68,0.00,,---,0.01,VWS V14.01,2013-08-06 18:25:00,
2013-08-06 13:30:00,73.3,61.7,29.67,West,261,2.0,3.0,67,0.00,,---,0.01,VWS V14.01,2013-08-06 18:30:00,
2013-08-06 13:35:00,73.6,61.1,29.67,South,179,0.0,4.0,65,0.00,,---,0.01,VWS V14.01,2013-08-06 18:35:00,
2013-08-06 13:41:00,74.3,61.8,29.67,SSW,200,2.0,7.0,65,0.00,,---,0.01,VWS V14.01,2013-08-06 18:41:00,
2013-08-06 13:46:00,74.7,61.7,29.68,West,271,2.0,7.0,64,0.00,,---,0.01,VWS V14.01,2013-08-06 18:46:00,
2013-08-06 13:51:00,73.5,61.0,29.68,WSW,257,1.0,7.0,65,0.00,,---,0.01,VWS V14.01,2013-08-06 18:51:00,
2013-08-06 13:56:00,73.4,62.2,29.68,WNW,296,2.0,7.0,68,0.00,,---,0.01,VWS V14.01,2013-08-06 18:56:00,
2013-08-06 14:01:00,74.3,62.2,29.68,West,265,1.0,2.0,66,0.00,,---,0.01,VWS V14.01,2013-08-06 19:01:00,
2013-08-06 14:06:00,74.5,62.0,29.68,West,271,4.0,7.0,65,0.00,,---,0.01,VWS V14.01,2013-08-06 19:06:00,
2013-08-06 14:11:00,74.8,62.3,29.68,West,261,1.0,7.0,65,0.00,,---,0.01,VWS V14.01,2013-08-06 19:11:00,
2013-08-06 14:16:00,74.4,61.4,29.67,West,261,2.0,7.0,64,0.00,,---,0.01,VWS V14.01,2013-08-06 19:16:00,
2013-08-06 14:21:00,74.3,60.9,29.67,WSW,240,2.0,7.0,63,0.00,,---,0.01,VWS V14.01,2013-08-06 19:21:00,
2013-08-06 14:26:00,73.8,62.2,29.67,West,260,0.0,7.0,67,0.00,,---,0.01,VWS V14.01,2013-08-06 19:26:00,
2013-08-06 14:33:00,73.9,62.7,29.67,West,262,3.0,3.0,68,0.00,,---,0.01,VWS V14.01,2013-08-06 19:33:00,
2013-08-06 14:38:00,74.2,60.8,29.67,SSE,149,1.0,4.0,63,0.00,,---,0.01,VWS V14.01,2013-08-06 19:38:00,
2013-08-06 14:43:00,75.4,62.4,29.67,West,265,3.0,6.0,64,0.00,,---,0.01,VWS V14.01,2013-08-06 19:43:00,
2013-08-06 14:48:00,75.0,61.6,29.67,WNW,283,3.0,7.0,63,0.00,,---,0.01,VWS V14.01,2013-08-06 19:48:00,
2013-08-06 14:53:00,75.0,61.1,29.67,WNW,295,3.0,7.0,62,0.00,,---,0.01,VWS V14.01,2013-08-06 19:53:00,
2013-08-06 14:58:00,74.6,60.7,29.67,WSW,250,0.0,7.0,62,0.00,,---,0.01,VWS V14.01,2013-08-06 19:58:00,
2013-08-06 15:04:00,75.2,60.8,29.67,West,260,2.0,7.0,61,0.00,,---,0.01,VWS V14.01,2013-08-06 20:04:00,
2013-08-06 15:09:00,74.9,61.0,29.67,West,269,2.0,7.0,62,0.00,,---,0.01,VWS V14.01,2013-08-06 20:09:00,
2013-08-06 15:14:00,74.8,61.8,29.67,WSW,248,2.0,7.0,64,0.00,,---,0.01,VWS V14.01,2013-08-06 20:14:00,
2013-08-06 15:19:00,74.6,61.2,29.67,WNW,293,2.0,7.0,63,0.00,,---,0.01,VWS V14.01,2013-08-06 20:19:00,
2013-08-06 15:24:00,75.0,61.1,29.67,SSE,148,2.0,7.0,62,0.00,,---,0.01,VWS V14.01,2013-08-06 20:24:00,
2013-08-06 15:29:00,75.2,61.3,29.67,South,175,1.0,7.0,62,0.00,,---,0.01,VWS V14.01,2013-08-06 20:29:00,
2013-08-06 15:32:00,75.1,60.8,29.67,SSE,165,1.0,3.0,61,0.00,,---,0.01,VWS V14.01,2013-08-06 20:32:00,
2013-08-06 15:37:00,74.6,60.3,29.67,SW,229,0.0,4.0,61,0.00,,---,0.01,VWS V14.01,2013-08-06 20:37:00,
2013-08-06 15:43:00,74.2,61.2,29.67,West,272,2.0,4.0,64,0.00,,---,0.01,VWS V14.01,2013-08-06 20:43:00,
2013-08-06 15:48:00,74.5,60.6,29.67,WNW,291,3.0,4.0,62,0.00,,---,0.01,VWS V14.01,2013-08-06 20:48:00,
2013-08-06 15:53:00,74.8,61.4,29.67,WSW,242,2.0,6.0,63,0.00,,---,0.01,VWS V14.01,2013-08-06 20:53:00,
2013-08-06 15:58:00,74.9,61.0,29.67,West,276,1.0,7.0,62,0.00,,---,0.01,VWS V14.01,2013-08-06 20:58:00,
2013-08-06 16:03:00,75.2,60.4,29.67,WSW,252,1.0,5.0,60,0.00,,---,0.01,VWS V14.01,2013-08-06 21:03:00,
2013-08-06 16:08:00,75.1,60.8,29.67,West,265,2.0,5.0,61,0.00,,---,0.01,VWS V14.01,2013-08-06 21:08:00,
2013-08-06 16:13:00,75.4,61.5,29.67,West,272,4.0,5.0,62,0.00,,---,0.01,VWS V14.01,2013-08-06 21:13:00,
2013-08-06 16:18:00,75.1,61.2,29.67,SW,221,1.0,5.0,62,0.00,,---,0.01,VWS V14.01,2013-08-06 21:18:00,
2013-08-06 16:24:00,74.5,61.1,29.67,West,275,1.0,5.0,63,0.00,,---,0.01,VWS V14.01,2013-08-06 21:24:00,
2013-08-06 16:29:00,74.0,61.5,29.67,SE,141,4.0,5.0,65,0.00,,---,0.01,VWS V14.01,2013-08-06 21:29:00,
2013-08-06 16:34:00,74.4,62.3,29.67,West,272,0.0,2.0,66,0.00,,---,0.01,VWS V14.01,2013-08-06 21:34:00,
2013-08-06 16:39:00,74.9,61.0,29.67,WSW,248,2.0,4.0,62,0.00,,---,0.01,VWS V14.01,2013-08-06 21:39:00,
2013-08-06 16:44:00,74.6,61.2,29.67,WNW,284,2.0,4.0,63,0.00,,---,0.01,VWS V14.01,2013-08-06 21:44:00,
2013-08-06 16:49:00,75.0,62.5,29.67,West,268,0.0,4.0,65,0.00,,---,0.01,VWS V14.01,2013-08-06 21:49:00,
2013-08-06 16:54:00,74.9,61.0,29.67,SE,130,1.0,9.0,62,0.00,,---,0.01,VWS V14.01,2013-08-06 21:54:00,
2013-08-06 17:00:00,74.8,60.5,29.67,West,259,3.0,9.0,61,0.00,,---,0.01,VWS V14.01,2013-08-06 22:00:00,
2013-08-06 17:05:00,74.6,60.7,29.67,West,265,1.0,3.0,62,0.00,,---,0.01,VWS V14.01,2013-08-06 22:05:00,
2013-08-06 17:10:00,74.7,61.3,29.67,West,276,2.0,4.0,63,0.00,,---,0.01,VWS V14.01,2013-08-06 22:10:00,
2013-08-06 17:15:00,74.4,60.1,29.66,West,262,2.0,6.0,61,0.00,,---,0.01,VWS V14.01,2013-08-06 22:15:00,
2013-08-06 17:20:00,74.2,60.4,29.66,WSW,248,1.0,6.0,62,0.00,,---,0.01,VWS V14.01,2013-08-06 22:20:00,
2013-08-06 17:25:00,74.0,60.2,29.66,West,276,2.0,7.0,62,0.00,,---,0.01,VWS V14.01,2013-08-06 22:25:00,
2013-08-06 17:30:00,74.0,60.2,29.66,WSW,257,1.0,1.0,62,0.00,,---,0.01,VWS V14.01,2013-08-06 22:30:00,
2013-08-06 17:35:00,74.2,59.4,29.66,WSW,250,2.0,5.0,60,0.00,,---,0.01,VWS V14.01,2013-08-06 22:35:00,
2013-08-06 17:40:00,74.2,59.4,29.66,West,265,0.0,5.0,60,0.00,,---,0.01,VWS V14.01,2013-08-06 22:40:00,
2013-08-06 17:45:00,74.0,60.2,29.66,NW,304,3.0,5.0,62,0.00,,---,0.01,VWS V14.01,2013-08-06 22:45:00,
2013-08-06 17:50:00,73.9,60.1,29.66,West,259,1.0,5.0,62,0.00,,---,0.01,VWS V14.01,2013-08-06 22:50:00,
2013-08-06 17:55:00,73.9,60.1,29.66,West,269,2.0,5.0,62,0.00,,---,0.01,VWS V14.01,2013-08-06 22:55:00,
2013-08-06 18:00:00,73.7,59.9,29.67,West,260,1.0,1.0,62,0.00,,---,0.01,VWS V14.01,2013-08-06 23:00:00,
2013-08-06 18:05:00,73.7,60.3,29.67,West,265,1.0,4.0,63,0.00,,---,0.01,VWS V14.01,2013-08-06 23:05:00,
2013-08-06 18:10:00,73.6,60.7,29.67,WSW,237,0.0,5.0,64,0.00,,---,0.01,VWS V14.01,2013-08-06 23:10:00,
2013-08-06 18:15:00,73.7,60.3,29.67,SW,225,1.0,5.0,63,0.00,,---,0.01,VWS V14.01,2013-08-06 23:15:00,
2013-08-06 18:20:00,73.7,60.3,29.67,WSW,255,1.0,5.0,63,0.00,,---,0.01,VWS V14.01,2013-08-06 23:20:00,
2013-08-06 18:26:00,73.5,60.2,29.67,WSW,253,1.0,5.0,63,0.00,,---,0.01,VWS V14.01,2013-08-06 23:26:00,
2013-08-06 18:31:00,73.2,60.3,29.67,WSW,241,0.0,0.0,64,0.00,,---,0.01,VWS V14.01,2013-08-06 23:31:00,
2013-08-06 18:36:00,73.0,61.4,29.67,WSW,241,0.0,0.0,67,0.00,,---,0.01,VWS V14.01,2013-08-06 23:36:00,
2013-08-06 18:41:00,72.6,60.2,29.67,SSW,202,0.0,2.0,65,0.00,,---,0.01,VWS V14.01,2013-08-06 23:41:00,
2013-08-06 18:46:00,72.3,60.3,29.66,SSW,202,0.0,2.0,66,0.00,,---,0.01,VWS V14.01,2013-08-06 23:46:00,
2013-08-06 18:51:00,71.9,60.8,29.66,SSW,210,0.0,2.0,68,0.00,,---,0.01,VWS V14.01,2013-08-06 23:51:00,
2013-08-06 18:56:00,71.5,60.0,29.66,SE,141,0.0,2.0,67,0.00,,---,0.01,VWS V14.01,2013-08-06 23:56:00,
2013-08-06 19:01:00,71.4,60.3,29.67,SE,141,0.0,0.0,68,0.00,,---,0.01,VWS V14.01,2013-08-07 00:01:00,
2013-08-06 19:06:00,71.3,61.0,29.67,SSW,193,0.0,0.0,70,0.00,,---,0.01,VWS V14.01,2013-08-07 00:06:00,
2013-08-06 19:11:00,70.8,60.1,29.67,SW,217,0.0,0.0,69,0.00,,---,0.01,VWS V14.01,2013-08-07 00:11:00,
2013-08-06 19:16:00,70.6,61.1,29.68,SW,218,0.0,0.0,72,0.00,,---,0.01,VWS V14.01,2013-08-07 00:16:00,
2013-08-06 19:21:00,70.3,61.2,29.68,SW,232,0.0,0.0,73,0.00,,---,0.01,VWS V14.01,2013-08-07 00:21:00,
2013-08-06 19:26:00,70.0,62.5,29.68,SW,232,0.0,0.0,77,0.00,,---,0.01,VWS V14.01,2013-08-07 00:26:00,
2013-08-06 19:31:00,70.0,61.7,29.67,SW,232,0.0,0.0,75,0.00,,---,0.01,VWS V14.01,2013-08-07 00:31:00,
2013-08-06 19:36:00,69.9,62.4,29.67,SW,232,0.0,0.0,77,0.00,,---,0.01,VWS V14.01,2013-08-07 00:36:00,
2013-08-06 19:41:00,69.4,61.9,29.67,SW,232,0.0,0.0,77,0.00,,---,0.01,VWS V14.01,2013-08-07 00:41:00,
2013-08-06 19:46:00,68.9,62.1,29.66,SW,232,0.0,0.0,79,0.00,,---,0.01,VWS V14.01,2013-08-07 00:46:00,
2013-08-06 19:51:00,68.6,62.5,29.66,SW,232,0.0,0.0,81,0.00,,---,0.01,VWS V14.01,2013-08-07 00:51:00,
2013-08-06 19:56:00,68.1,61.7,29.66,SW,232,0.0,0.0,80,0.00,,---,0.01,VWS V14.01,2013-08-07 00:56:00,
2013-08-06 20:01:00,67.7,61.7,29.65,SW,232,0.0,0.0,81,0.00,,---,0.01,VWS V14.01,2013-08-07 01:01:00,
2013-08-06 20:07:00,67.4,61.4,29.65,SW,232,0.0,0.0,81,0.00,,---,0.01,VWS V14.01,2013-08-07 01:07:00,
2013-08-06 20:12:00,67.2,60.8,29.65,SW,232,0.0,0.0,80,0.00,,---,0.01,VWS V14.01,2013-08-07 01:12:00,
2013-08-06 20:17:00,67.1,61.4,29.65,SW,232,0.0,0.0,82,0.00,,---,0.01,VWS V14.01,2013-08-07 01:17:00,
2013-08-06 20:22:00,66.9,61.9,29.65,SW,232,0.0,0.0,84,0.00,,---,0.01,VWS V14.01,2013-08-07 01:22:00,
2013-08-06 20:27:00,66.7,61.7,29.65,SW,232,0.0,0.0,84,0.00,,---,0.01,VWS V14.01,2013-08-07 01:27:00,
2013-08-06 20:32:00,66.4,62.4,29.63,SW,232,0.0,0.0,87,0.00,,---,0.01,VWS V14.01,2013-08-07 01:32:00,
2013-08-06 20:37:00,66.0,62.3,29.63,SW,232,0.0,0.0,88,0.00,,---,0.01,VWS V14.01,2013-08-07 01:37:00,
2013-08-06 20:42:00,65.5,61.5,29.63,SW,232,0.0,0.0,87,0.00,,---,0.01,VWS V14.01,2013-08-07 01:42:00,
2013-08-06 20:47:00,65.4,61.1,29.63,SW,232,0.0,0.0,86,0.00,,---,0.01,VWS V14.01,2013-08-07 01:47:00,
2013-08-06 20:52:00,65.3,61.3,29.63,SW,232,0.0,0.0,87,0.00,,---,0.01,VWS V14.01,2013-08-07 01:52:00,
2013-08-06 20:57:00,65.2,61.6,29.63,SW,232,0.0,0.0,88,0.00,,---,0.01,VWS V14.01,2013-08-07 01:57:00,
2013-08-06 21:02:00,65.1,61.8,29.62,SW,232,0.0,0.0,89,0.00,,---,0.01,VWS V14.01,2013-08-07 02:02:00,
2013-08-06 21:07:00,64.9,61.9,29.62,SW,232,0.0,0.0,90,0.00,,---,0.01,VWS V14.01,2013-08-07 02:07:00,
2013-08-06 21:13:00,64.8,61.8,29.62,SW,232,0.0,0.0,90,0.00,,---,0.01,VWS V14.01,2013-08-07 02:13:00,
2013-08-06 21:18:00,64.7,61.4,29.64,SW,232,0.0,0.0,89,0.00,,---,0.01,VWS V14.01,2013-08-07 02:18:00,
2013-08-06 21:23:00,64.5,61.8,29.64,WNW,285,0.0,0.0,91,0.00,,---,0.01,VWS V14.01,2013-08-07 02:23:00,
2013-08-06 21:28:00,64.1,61.4,29.64,ESE,117,0.0,8.0,91,0.01,,---,0.02,VWS V14.01,2013-08-07 02:28:00,
2013-08-06 21:33:00,63.5,60.5,29.67,East,80,3.0,5.0,90,0.04,,---,0.05,VWS V14.01,2013-08-07 02:33:00,
2013-08-06 21:38:00,62.2,59.8,29.67,West,259,3.0,6.0,92,0.07,,---,0.08,VWS V14.01,2013-08-07 02:38:00,
2013-08-06 21:43:00,60.9,58.3,29.67,East,84,1.0,6.0,91,0.10,,---,0.11,VWS V14.01,2013-08-07 02:43:00,
2013-08-06 21:48:00,60.1,58.1,29.68,East,80,1.0,6.0,93,0.17,,---,0.18,VWS V14.01,2013-08-07 02:48:00,
2013-08-06 21:53:00,59.6,57.9,29.68,East,90,2.0,7.0,94,0.23,,---,0.24,VWS V14.01,2013-08-07 02:53:00,
2013-08-06 21:58:00,59.5,58.1,29.68,East,94,0.0,7.0,95,0.25,,---,0.26,VWS V14.01,2013-08-07 02:58:00,
2013-08-06 22:03:00,59.5,58.4,29.67,East,94,0.0,0.0,96,0.26,,---,0.27,VWS V14.01,2013-08-07 03:03:00,
2013-08-06 22:08:00,59.4,58.3,29.67,SSE,148,0.0,0.0,96,0.28,,---,0.29,VWS V14.01,2013-08-07 03:08:00,
2013-08-06 22:13:00,59.3,58.2,29.67,WSW,246,0.0,0.0,96,0.31,,---,0.32,VWS V14.01,2013-08-07 03:13:00,
2013-08-06 22:18:00,59.3,58.5,29.69,SW,219,0.0,0.0,97,0.31,,---,0.32,VWS V14.01,2013-08-07 03:18:00,
2013-08-06 22:23:00,59.3,58.5,29.69,West,264,0.0,0.0,97,0.33,,---,0.34,VWS V14.01,2013-08-07 03:23:00,
2013-08-06 22:28:00,59.2,58.3,29.69,West,280,0.0,1.0,97,0.34,,---,0.35,VWS V14.01,2013-08-07 03:28:00,
2013-08-06 22:33:00,59.2,58.3,29.69,West,267,0.0,1.0,97,0.34,,---,0.36,VWS V14.01,2013-08-07 03:33:00,
2013-08-06 22:38:00,59.3,58.5,29.69,West,268,0.0,1.0,97,0.36,,---,0.38,VWS V14.01,2013-08-07 03:38:00,
2013-08-06 22:43:00,59.3,58.5,29.69,West,268,0.0,1.0,97,0.37,,---,0.39,VWS V14.01,2013-08-07 03:43:00,
2013-08-06 22:49:00,59.4,58.5,29.68,West,266,0.0,1.0,97,0.39,,---,0.41,VWS V14.01,2013-08-07 03:49:00,
2013-08-06 22:54:00,59.5,58.9,29.68,East,81,0.0,2.0,98,0.40,,---,0.42,VWS V14.01,2013-08-07 03:54:00,
2013-08-06 22:59:00,59.5,58.9,29.68,ESE,107,0.0,2.0,98,0.42,,---,0.44,VWS V14.01,2013-08-07 03:59:00,
2013-08-06 23:01:00,59.5,58.9,29.66,ESE,111,0.0,0.0,98,0.17,,---,0.44,VWS V14.01,2013-08-07 04:01:00,
2013-08-06 23:03:00,59.5,58.9,29.66,ESE,111,0.0,0.0,98,0.18,,---,0.45,VWS V14.01,2013-08-07 04:03:00,
2013-08-06 23:04:00,59.5,58.9,29.66,ESE,110,0.0,0.0,98,0.19,,---,0.46,VWS V14.01,2013-08-07 04:04:00,
2013-08-06 23:09:00,59.6,59.0,29.66,ESE,111,0.0,0.0,98,0.20,,---,0.47,VWS V14.01,2013-08-07 04:09:00,
2013-08-06 23:14:00,59.5,58.9,29.66,ESE,114,0.0,0.0,98,0.20,,---,0.47,VWS V14.01,2013-08-07 04:14:00,
2013-08-06 23:19:00,59.5,58.9,29.64,ESE,111,0.0,0.0,98,0.20,,---,0.47,VWS V14.01,2013-08-07 04:19:00,
2013-08-06 23:24:00,59.5,58.9,29.64,ESE,111,0.0,0.0,98,0.20,,---,0.47,VWS V14.01,2013-08-07 04:24:00,
2013-08-06 23:29:00,59.4,58.8,29.64,ESE,113,0.0,0.0,98,0.20,,---,0.47,VWS V14.01,2013-08-07 04:29:00,
2013-08-06 23:34:00,59.4,58.8,29.64,ESE,113,0.0,0.0,98,0.12,,---,0.47,VWS V14.01,2013-08-07 04:34:00,
2013-08-06 23:39:00,59.4,58.8,29.64,ESE,113,0.0,0.0,98,0.12,,---,0.47,VWS V14.01,2013-08-07 04:39:00,
2013-08-06 23:44:00,59.3,58.7,29.63,SW,236,0.0,0.0,98,0.12,,---,0.47,VWS V14.01,2013-08-07 04:44:00,
2013-08-06 23:49:00,59.3,58.7,29.63,WSW,250,0.0,0.0,98,0.13,,---,0.48,VWS V14.01,2013-08-07 04:49:00,
2013-08-06 23:54:00,59.4,58.8,29.63,East,101,0.0,0.0,98,0.14,,---,0.49,VWS V14.01,2013-08-07 04:54:00,
2013-08-06 23:59:00,59.3,58.7,29.63,SW,229,0.0,0.0,98,0.14,,---,0.49,VWS V14.01,2013-08-07 04:59:00,